createdAt,value
2022-09-09T00:03:30.158Z,0
2022-09-09T00:08:29.366Z,0
2022-09-09T00:13:29.578Z,0
2022-09-09T00:18:29.770Z,0
2022-09-09T00:23:29.853Z,0
2022-09-09T00:28:29.991Z,0
2022-09-09T00:33:29.097Z,0
2022-09-09T00:38:29.435Z,0
2022-09-09T00:43:29.766Z,0
2022-09-09T00:48:29.227Z,0
2022-09-09T00:53:29.041Z,0
2022-09-09T00:58:29.463Z,0
2022-09-09T01:03:29.868Z,0
2022-09-09T01:08:30.060Z,0
2022-09-09T01:13:29.215Z,0
2022-09-09T01:18:29.869Z,0
2022-09-09T01:23:29.151Z,0
2022-09-09T01:28:29.383Z,0
2022-09-09T01:33:29.523Z,0
2022-09-09T01:38:29.794Z,0
2022-09-09T01:43:29.991Z,0
2022-09-09T01:48:29.411Z,0
2022-09-09T01:53:29.577Z,0
2022-09-09T01:58:30.258Z,0
2022-09-09T02:03:29.449Z,0
2022-09-09T02:08:29.663Z,0
2022-09-09T02:13:29.743Z,0
2022-09-09T02:18:29.999Z,0
2022-09-09T02:23:29.690Z,0
2022-09-09T02:28:30.244Z,0
2022-09-09T02:33:29.596Z,0
2022-09-09T02:38:30.173Z,0
2022-09-09T02:43:29.525Z,0
2022-09-09T02:48:30.089Z,0
2022-09-09T02:53:29.763Z,0
2022-09-09T02:58:29.517Z,0
2022-09-09T03:03:29.952Z,0
2022-09-09T03:08:30.072Z,0
2022-09-09T03:13:29.719Z,0
2022-09-09T03:18:30.082Z,0
2022-09-09T03:23:29.104Z,0
2022-09-09T03:28:29.240Z,0
2022-09-09T03:33:29.682Z,0
2022-09-09T03:38:30.139Z,0
2022-09-09T03:43:29.302Z,0
2022-09-09T03:48:30.092Z,0
2022-09-09T03:53:29.386Z,0
2022-09-09T03:58:29.752Z,0
2022-09-09T04:03:30.218Z,0
2022-09-09T04:08:29.861Z,0
2022-09-09T04:13:30.072Z,0
2022-09-09T04:18:29.339Z,0
2022-09-09T04:23:29.558Z,0
2022-09-09T04:28:29.986Z,0
2022-09-09T04:33:29.383Z,0
2022-09-09T04:38:30.039Z,0
2022-09-09T04:43:29.450Z,0
2022-09-09T04:48:29.873Z,0
2022-09-09T04:53:29.957Z,0
2022-09-09T04:58:30.230Z,2.5
2022-09-09T05:03:30.096Z,2.5
2022-09-09T05:08:30.026Z,5.8
2022-09-09T05:13:29.444Z,5.8
2022-09-09T05:18:29.969Z,10.3
2022-09-09T05:23:29.221Z,10.3
2022-09-09T05:28:29.798Z,14.7
2022-09-09T05:33:29.872Z,14.7
2022-09-09T05:38:29.974Z,27.2
2022-09-09T05:43:30.055Z,27.2
2022-09-09T05:48:29.605Z,33.8
2022-09-09T05:53:29.788Z,33.8
2022-09-09T05:58:29.992Z,44
2022-09-09T06:03:30.066Z,44
2022-09-09T06:08:29.681Z,88.4
2022-09-09T06:13:29.922Z,88.4
2022-09-09T06:18:30.195Z,77.8
2022-09-09T06:23:29.228Z,77.8
2022-09-09T06:28:29.552Z,49.7
2022-09-09T06:33:29.680Z,49.7
2022-09-09T06:38:29.926Z,50
2022-09-09T06:43:30.154Z,50
2022-09-09T06:48:29.599Z,105.8
2022-09-09T06:53:31.077Z,105.8
2022-09-09T06:58:29.525Z,205.3
2022-09-09T07:03:29.913Z,205.3
2022-09-09T07:08:30.133Z,122
2022-09-09T07:13:29.266Z,122
2022-09-09T07:18:29.869Z,135.2
2022-09-09T07:23:36.510Z,135.2
2022-09-09T07:28:30.194Z,149
2022-09-09T07:33:29.619Z,149
2022-09-09T07:38:29.939Z,130.2
2022-09-09T07:43:30.044Z,130.2
2022-09-09T07:48:30.244Z,127.8
2022-09-09T07:53:31.882Z,127.8
2022-09-09T07:58:30.575Z,153.6
2022-09-09T08:03:29.642Z,153.6
2022-09-09T08:08:30.046Z,163.5
2022-09-09T08:13:30.113Z,163.5
2022-09-09T08:18:29.360Z,237.8
2022-09-09T08:23:29.628Z,237.8
2022-09-09T08:28:29.745Z,223.4
2022-09-09T08:33:30.111Z,223.4
2022-09-09T08:38:29.485Z,218.2
2022-09-09T08:43:29.835Z,218.2
2022-09-09T08:48:30.240Z,222.8
2022-09-09T08:53:29.914Z,222.8
2022-09-09T08:58:30.620Z,192.6
2022-09-09T09:03:30.052Z,192.6
2022-09-09T09:08:29.556Z,259.8
2022-09-09T09:13:30.148Z,259.8
2022-09-09T09:18:29.546Z,299.8
2022-09-09T09:23:30.143Z,299.8
2022-09-09T09:28:29.606Z,267.8
2022-09-09T09:33:30.187Z,267.8
2022-09-09T09:43:29.882Z,259.4
2022-09-09T09:48:29.598Z,243.2
2022-09-09T09:53:30.020Z,243.2
2022-09-09T09:58:30.441Z,546.8
2022-09-09T10:03:30.018Z,546.8
2022-09-09T10:08:30.402Z,283.6
2022-09-09T10:13:29.731Z,283.6
2022-09-09T10:18:30.369Z,188.6
2022-09-09T10:23:29.998Z,188.6
2022-09-09T10:28:30.349Z,620.5
2022-09-09T10:33:29.904Z,620.5
2022-09-09T10:38:30.427Z,618.8
2022-09-09T10:43:29.549Z,618.8
2022-09-09T10:48:29.850Z,630.8
2022-09-09T10:53:30.090Z,630.8
2022-09-09T10:58:30.193Z,384.8
2022-09-09T11:03:29.728Z,384.8
2022-09-09T11:08:30.266Z,215.2
2022-09-09T11:13:30.278Z,215.2
2022-09-09T11:18:29.806Z,459
2022-09-09T11:23:29.965Z,459
2022-09-09T11:28:30.582Z,336.2
2022-09-09T11:33:29.834Z,336.2
2022-09-09T11:38:30.238Z,574.8
2022-09-09T11:43:29.407Z,574.8
2022-09-09T11:48:29.426Z,217.7
2022-09-09T11:53:29.757Z,217.7
2022-09-09T11:58:29.865Z,218.6
2022-09-09T12:03:30.124Z,218.6
2022-09-09T12:08:30.436Z,202.4
2022-09-09T12:13:29.711Z,202.4
2022-09-09T12:18:30.279Z,161.2
2022-09-09T12:23:29.735Z,161.2
2022-09-09T12:28:29.925Z,321
2022-09-09T12:33:29.966Z,321
2022-09-09T12:38:30.316Z,221.4
2022-09-09T12:43:30.582Z,221.4
2022-09-09T12:48:29.876Z,164
2022-09-09T12:53:30.323Z,164
2022-09-09T12:58:30.791Z,171.3
2022-09-09T13:03:29.707Z,171.3
2022-09-09T13:08:29.902Z,54.8
2022-09-09T13:13:30.147Z,54.8
2022-09-09T13:18:30.328Z,7.3
2022-09-09T13:23:29.546Z,7.3
2022-09-09T13:28:34.754Z,6.3
2022-09-09T13:33:29.967Z,6.3
2022-09-09T13:38:30.179Z,40.2
2022-09-09T13:43:30.406Z,40.2
2022-09-09T13:48:30.528Z,43.3
2022-09-09T13:53:30.158Z,43.3
2022-09-09T13:58:30.379Z,41.6
2022-09-09T14:03:29.802Z,41.6
2022-09-09T14:08:30.344Z,49
2022-09-09T14:13:30.444Z,49
2022-09-09T14:18:29.612Z,47.8
2022-09-09T14:23:29.886Z,47.8
2022-09-09T14:33:30.407Z,35.4
2022-09-09T14:38:29.979Z,36.2
2022-09-09T14:43:29.937Z,36.2
2022-09-09T14:48:30.525Z,42
2022-09-09T14:53:30.651Z,42
2022-09-09T14:58:32.588Z,54
2022-09-09T15:03:30.370Z,54
2022-09-09T15:08:30.236Z,58
2022-09-09T15:13:30.426Z,58
2022-09-09T15:18:29.888Z,58
2022-09-09T15:23:30.269Z,58
2022-09-09T15:28:30.154Z,58
2022-09-09T15:33:30.259Z,58
2022-09-09T15:38:30.251Z,58
2022-09-09T15:43:30.420Z,58
2022-09-09T15:48:30.319Z,98
2022-09-09T15:53:29.732Z,98
2022-09-09T15:58:30.089Z,104
2022-09-09T16:03:30.549Z,104
2022-09-09T16:08:29.854Z,107
2022-09-09T16:13:30.212Z,107
2022-09-09T16:18:30.511Z,107
2022-09-09T16:23:30.570Z,107
2022-09-09T16:28:29.785Z,101
2022-09-09T16:33:30.283Z,101
2022-09-09T16:38:30.467Z,79
2022-09-09T16:43:29.817Z,79
2022-09-09T16:48:30.204Z,79
2022-09-09T16:53:30.583Z,79
2022-09-09T16:58:29.729Z,51
2022-09-09T17:03:29.892Z,51
2022-09-09T17:08:30.262Z,35
2022-09-09T17:13:30.662Z,35
2022-09-09T17:18:29.755Z,27.3
2022-09-09T17:23:30.066Z,27.3
2022-09-09T17:28:30.361Z,21.8
2022-09-09T17:33:30.695Z,21.8
2022-09-09T17:38:30.000Z,10.8
2022-09-09T17:43:30.327Z,10.8
2022-09-09T17:48:30.698Z,1.7
2022-09-09T17:53:30.114Z,1.7
2022-09-09T17:58:30.397Z,0
2022-09-09T18:03:29.778Z,0
2022-09-09T18:08:36.888Z,0
2022-09-09T18:13:30.544Z,0
2022-09-09T18:18:29.976Z,0
2022-09-09T18:23:30.142Z,0
2022-09-09T18:28:30.319Z,0
2022-09-09T18:33:30.513Z,0
2022-09-09T18:38:30.781Z,0
2022-09-09T18:43:29.889Z,0
2022-09-09T18:48:30.237Z,0
2022-09-09T18:53:30.478Z,0
2022-09-09T18:58:30.960Z,0
2022-09-09T19:03:30.134Z,0
2022-09-09T19:08:30.913Z,0
2022-09-09T19:13:30.273Z,0
2022-09-09T19:18:30.517Z,0
2022-09-09T19:23:29.873Z,0
2022-09-09T19:28:30.444Z,0
2022-09-09T19:33:30.804Z,0
2022-09-09T19:38:30.337Z,0
2022-09-09T19:43:30.410Z,0
2022-09-09T19:48:30.577Z,0
2022-09-09T19:53:29.785Z,0
2022-09-09T19:58:29.921Z,0
2022-09-09T20:03:30.129Z,0
2022-09-09T20:08:30.687Z,0
2022-09-09T20:13:30.055Z,0
2022-09-09T20:18:30.463Z,0
2022-09-09T20:23:30.760Z,0
2022-09-09T20:28:30.268Z,0
2022-09-09T20:33:30.441Z,0
2022-09-09T20:38:29.747Z,0
2022-09-09T20:43:29.961Z,0
2022-09-09T20:48:30.492Z,0
2022-09-09T20:53:30.786Z,0
2022-09-09T20:58:33.755Z,0
2022-09-09T21:03:30.635Z,0
2022-09-09T21:08:30.055Z,0
2022-09-09T21:13:30.235Z,0
2022-09-09T21:18:30.676Z,0
2022-09-09T21:23:30.446Z,0
2022-09-09T21:28:30.806Z,0
2022-09-09T21:33:30.414Z,0
2022-09-09T21:38:30.741Z,0
2022-09-09T21:43:30.243Z,0
2022-09-09T21:48:30.754Z,0
2022-09-09T21:53:30.007Z,0
2022-09-09T21:58:30.361Z,0
2022-09-09T22:03:29.853Z,0
2022-09-09T22:08:30.141Z,0
2022-09-09T22:13:30.678Z,0
2022-09-09T22:18:30.238Z,0
2022-09-09T22:23:30.475Z,0
2022-09-09T22:28:30.808Z,0
2022-09-09T22:33:29.840Z,0
2022-09-09T22:38:30.025Z,0
2022-09-09T22:43:30.260Z,0
2022-09-09T22:48:30.621Z,0
2022-09-09T22:58:30.182Z,0
2022-09-09T23:03:30.415Z,0
2022-09-09T23:08:30.781Z,0
2022-09-09T23:13:30.103Z,0
2022-09-09T23:18:30.390Z,0
2022-09-09T23:23:30.652Z,0
2022-09-09T23:58:31.001Z,0
